sensor_id;sensor_type;location;lat;lon;timestamp;pressure;altitude;pressure_sealevel;temperature;humidity
4085;BME280;2057;50.858;6.572;2023-04-01T00:01:14;98236.00;;;9.26;100.00
4085;BME280;2057;50.858;6.572;2023-04-01T00:03:41;98240.38;;;9.35;100.00
4085;BME280;2057;50.858;6.572;2023-04-01T00:06:17;98239.41;;;9.26;100.00
4085;BME280;2057;50.858;6.572;2023-04-01T00:08:43;98236.88;;;9.28;100.00
4085;BME280;2057;50.858;6.572;2023-04-01T00:11:09;98243.56;;;9.23;100.00
4085;BME280;2057;50.858;6.572;2023-04-01T00:13:36;98237.66;;;9.24;100.00
4085;BME280;2057;50.858;6.572;2023-04-01T00:16:02;98234.28;;;9.23;100.00
4085;BME280;2057;50.858;6.572;2023-04-01T00:18:30;98230.91;;;9.23;100.00
4085;BME280;2057;50.858;6.572;2023-04-01T00:20:55;98219.84;;;9.18;100.00
4085;BME280;2057;50.858;6.572;2023-04-01T00:23:21;98241.78;;;9.19;100.00
4085;BME280;2057;50.858;6.572;2023-04-01T00:25:47;98227.41;;;9.15;100.00
4085;BME280;2057;50.858;6.572;2023-04-01T00:28:14;98230.03;;;9.22;100.00
4085;BME280;2057;50.858;6.572;2023-04-01T00:30:40;98223.28;;;9.21;100.00
4085;BME280;2057;50.858;6.572;2023-04-01T00:33:06;98220.06;;;9.30;100.00
4085;BME280;2057;50.858;6.572;2023-04-01T00:35:31;98219.25;;;9.34;100.00
4085;BME280;2057;50.858;6.572;2023-04-01T00:37:57;98220.88;;;9.29;100.00
4085;BME280;2057;50.858;6.572;2023-04-01T00:40:31;98220.91;;;9.32;100.00
4085;BME280;2057;50.858;6.572;2023-04-01T00:43:00;98221.75;;;9.31;100.00
4085;BME280;2057;50.858;6.572;2023-04-01T00:45:28;98214.94;;;9.27;100.00
4085;BME280;2057;50.858;6.572;2023-04-01T00:47:54;98220.91;;;9.32;100.00
4085;BME280;2057;50.858;6.572;2023-04-01T00:50:22;98221.69;;;9.26;100.00
4085;BME280;2057;50.858;6.572;2023-04-01T00:52:52;98224.16;;;9.25;100.00
4085;BME280;2057;50.858;6.572;2023-04-01T00:55:19;98247.81;;;9.25;100.00
4085;BME280;2057;50.858;6.572;2023-04-01T00:57:47;98214.09;;;9.28;100.00
4085;BME280;2057;50.858;6.572;2023-04-01T01:00:14;98224.16;;;9.25;100.00
4085;BME280;2057;50.858;6.572;2023-04-01T01:02:43;98218.22;;;9.21;100.00
4085;BME280;2057;50.858;6.572;2023-04-01T01:05:12;98224.13;;;9.22;100.00
4085;BME280;2057;50.858;6.572;2023-04-01T01:07:46;98216.56;;;9.23;100.00
4085;BME280;2057;50.858;6.572;2023-04-01T01:12:49;98226.75;;;9.28;100.00
4085;BME280;2057;50.858;6.572;2023-04-01T01:15:25;98223.31;;;9.23;100.00
4085;BME280;2057;50.858;6.572;2023-04-01T01:23:43;98225.69;;;9.14;100.00
4085;BME280;2057;50.858;6.572;2023-04-01T01:26:44;98229.03;;;9.13;100.00
4085;BME280;2057;50.858;6.572;2023-04-01T01:34:47;98214.69;;;9.13;100.00
4085;BME280;2057;50.858;6.572;2023-04-01T01:37:17;98222.25;;;9.12;100.00
4085;BME280;2057;50.858;6.572;2023-04-01T01:39:48;98221.34;;;9.08;100.00
4085;BME280;2057;50.858;6.572;2023-04-01T01:42:17;98215.44;;;9.07;100.00
4085;BME280;2057;50.858;6.572;2023-04-01T01:44:46;98229.75;;;9.05;100.00
4085;BME280;2057;50.858;6.572;2023-04-01T01:47:13;98222.91;;;9.01;100.00
4085;BME280;2057;50.858;6.572;2023-04-01T01:49:42;98201.84;;;9.02;100.00
4085;BME280;2057;50.858;6.572;2023-04-01T01:52:12;98212.72;;;8.98;100.00
4085;BME280;2057;50.858;6.572;2023-04-01T01:54:50;98227.09;;;8.99;100.00
4085;BME280;2057;50.858;6.572;2023-04-01T01:57:17;98202.69;;;9.03;100.00
4085;BME280;2057;50.858;6.572;2023-04-01T01:59:45;98212.78;;;9.01;100.00
4085;BME280;2057;50.858;6.572;2023-04-01T02:02:13;98206.84;;;8.99;100.00
4085;BME280;2057;50.858;6.572;2023-04-01T02:04:41;98206.81;;;8.96;100.00
4085;BME280;2057;50.858;6.572;2023-04-01T02:07:32;98208.44;;;8.94;100.00
4085;BME280;2057;50.858;6.572;2023-04-01T02:09:57;98207.41;;;8.83;100.00
4085;BME280;2057;50.858;6.572;2023-04-01T02:12:23;98202.50;;;8.90;100.00
4085;BME280;2057;50.858;6.572;2023-04-01T02:15:08;98206.66;;;8.87;100.00
4085;BME280;2057;50.858;6.572;2023-04-01T02:17:39;98188.97;;;8.90;100.00
4085;BME280;2057;50.858;6.572;2023-04-01T02:20:09;98199.97;;;8.92;100.00
4085;BME280;2057;50.858;6.572;2023-04-01T02:22:40;98204.03;;;8.84;100.00
4085;BME280;2057;50.858;6.572;2023-04-01T02:25:17;98203.22;;;8.85;100.00
4085;BME280;2057;50.858;6.572;2023-04-01T02:27:44;98199.88;;;8.87;100.00
4085;BME280;2057;50.858;6.572;2023-04-01T02:30:12;98202.50;;;8.92;100.00
4085;BME280;2057;50.858;6.572;2023-04-01T02:32:38;98194.06;;;8.91;100.00
4085;BME280;2057;50.858;6.572;2023-04-01T02:35:10;98202.53;;;8.93;100.00
4085;BME280;2057;50.858;6.572;2023-04-01T02:37:38;98200.88;;;8.95;100.00
4085;BME280;2057;50.858;6.572;2023-04-01T02:40:10;98203.31;;;8.91;100.00
4085;BME280;2057;50.858;6.572;2023-04-01T02:42:36;98199.91;;;8.89;100.00
4085;BME280;2057;50.858;6.572;2023-04-01T02:45:02;98204.97;;;8.89;100.00
4085;BME280;2057;50.858;6.572;2023-04-01T02:47:28;98202.50;;;8.90;100.00
4085;BME280;2057;50.858;6.572;2023-04-01T02:49:54;98211.75;;;8.90;100.00
4085;BME280;2057;50.858;6.572;2023-04-01T02:52:24;98208.34;;;8.88;100.00
4085;BME280;2057;50.858;6.572;2023-04-01T02:54:49;98206.56;;;8.82;100.00
4085;BME280;2057;50.858;6.572;2023-04-01T02:57:15;98199.78;;;8.79;100.00
4085;BME280;2057;50.858;6.572;2023-04-01T02:59:40;98213.22;;;8.78;100.00
4085;BME280;2057;50.858;6.572;2023-04-01T03:02:05;98210.81;;;8.85;100.00
4085;BME280;2057;50.858;6.572;2023-04-01T03:04:32;98217.69;;;8.92;100.00
4085;BME280;2057;50.858;6.572;2023-04-01T03:06:57;98214.25;;;8.88;100.00
4085;BME280;2057;50.858;6.572;2023-04-01T03:09:23;98211.56;;;8.81;100.00
4085;BME280;2057;50.858;6.572;2023-04-01T03:11:48;98218.34;;;8.82;100.00
4085;BME280;2057;50.858;6.572;2023-04-01T03:14:13;98217.47;;;8.79;100.00
4085;BME280;2057;50.858;6.572;2023-04-01T03:16:39;98210.72;;;8.78;100.00
4085;BME280;2057;50.858;6.572;2023-04-01T03:19:04;98222.56;;;8.83;100.00
4085;BME280;2057;50.858;6.572;2023-04-01T03:21:30;98220.78;;;8.77;100.00
4085;BME280;2057;50.858;6.572;2023-04-01T03:23:55;98224.13;;;8.76;100.00
4085;BME280;2057;50.858;6.572;2023-04-01T03:26:21;98212.41;;;8.79;100.00
4085;BME280;2057;50.858;6.572;2023-04-01T03:28:47;98226.88;;;8.87;100.00
4085;BME280;2057;50.858;6.572;2023-04-01T03:31:12;98214.94;;;8.79;100.00
4085;BME280;2057;50.858;6.572;2023-04-01T03:33:38;98229.31;;;8.82;100.00
4085;BME280;2057;50.858;6.572;2023-04-01T03:36:03;98225.09;;;8.83;100.00
4085;BME280;2057;50.858;6.572;2023-04-01T03:38:32;98223.47;;;8.85;100.00
4085;BME280;2057;50.858;6.572;2023-04-01T03:41:00;98233.59;;;8.85;100.00
4085;BME280;2057;50.858;6.572;2023-04-01T03:43:26;98230.16;;;8.83;100.00
4085;BME280;2057;50.858;6.572;2023-04-01T03:45:52;98230.97;;;8.82;100.00
4085;BME280;2057;50.858;6.572;2023-04-01T03:48:18;98228.38;;;8.77;100.00
4085;BME280;2057;50.858;6.572;2023-04-01T03:50:44;98229.28;;;8.81;100.00
4085;BME280;2057;50.858;6.572;2023-04-01T03:53:10;98229.16;;;8.74;100.00
4085;BME280;2057;50.858;6.572;2023-04-01T03:55:36;98226.63;;;8.74;100.00
4085;BME280;2057;50.858;6.572;2023-04-01T03:58:02;98235.94;;;8.77;100.00
4085;BME280;2057;50.858;6.572;2023-04-01T04:00:28;98242.69;;;8.75;100.00
4085;BME280;2057;50.858;6.572;2023-04-01T04:02:54;98233.34;;;8.72;100.00
4085;BME280;2057;50.858;6.572;2023-04-01T04:05:24;98234.28;;;8.77;100.00
4085;BME280;2057;50.858;6.572;2023-04-01T04:07:50;98243.63;;;8.82;100.00
4085;BME280;2057;50.858;6.572;2023-04-01T04:10:16;98242.78;;;8.81;100.00
4085;BME280;2057;50.858;6.572;2023-04-01T04:12:42;98237.66;;;8.78;100.00
4085;BME280;2057;50.858;6.572;2023-04-01T04:15:08;98238.34;;;8.69;100.00
4085;BME280;2057;50.858;6.572;2023-04-01T04:17:36;98243.44;;;8.72;100.00
4085;BME280;2057;50.858;6.572;2023-04-01T04:20:01;98246.75;;;8.68;100.00
4085;BME280;2057;50.858;6.572;2023-04-01T04:22:29;98241.78;;;8.71;100.00
4085;BME280;2057;50.858;6.572;2023-04-01T04:24:57;98250.19;;;8.72;100.00
4085;BME280;2057;50.858;6.572;2023-04-01T04:27:22;98247.56;;;8.67;100.00
4085;BME280;2057;50.858;6.572;2023-04-01T04:29:47;98251.78;;;8.67;100.00
4085;BME280;2057;50.858;6.572;2023-04-01T04:32:13;98257.06;;;8.77;100.00
4085;BME280;2057;50.858;6.572;2023-04-01T04:34:38;98245.22;;;8.75;100.00
4085;BME280;2057;50.858;6.572;2023-04-01T04:37:03;98259.50;;;8.73;100.00
4085;BME280;2057;50.858;6.572;2023-04-01T04:39:29;98246.88;;;8.74;100.00
4085;BME280;2057;50.858;6.572;2023-04-01T04:41:55;98256.94;;;8.71;100.00
4085;BME280;2057;50.858;6.572;2023-04-01T04:44:20;98261.13;;;8.69;100.00
4085;BME280;2057;50.858;6.572;2023-04-01T04:46:46;98264.47;;;8.70;100.00
4085;BME280;2057;50.858;6.572;2023-04-01T04:49:11;98267.00;;;8.68;100.00
4085;BME280;2057;50.858;6.572;2023-04-01T04:51:36;98266.91;;;8.65;100.00
4085;BME280;2057;50.858;6.572;2023-04-01T04:54:03;98275.31;;;8.64;100.00
4085;BME280;2057;50.858;6.572;2023-04-01T04:56:28;98281.19;;;8.61;100.00
4085;BME280;2057;50.858;6.572;2023-04-01T04:58:54;98274.41;;;8.60;100.00
4085;BME280;2057;50.858;6.572;2023-04-01T05:01:21;98276.81;;;8.53;100.00
4085;BME280;2057;50.858;6.572;2023-04-01T05:03:47;98289.38;;;8.50;100.00
4085;BME280;2057;50.858;6.572;2023-04-01T05:06:15;98279.22;;;8.48;100.00
4085;BME280;2057;50.858;6.572;2023-04-01T05:08:42;98283.50;;;8.51;100.00
4085;BME280;2057;50.858;6.572;2023-04-01T05:11:13;98281.81;;;8.51;100.00
4085;BME280;2057;50.858;6.572;2023-04-01T05:13:39;98289.38;;;8.50;100.00
4085;BME280;2057;50.858;6.572;2023-04-01T05:16:17;98287.72;;;8.52;100.00
4085;BME280;2057;50.858;6.572;2023-04-01T05:18:47;98296.84;;;8.46;100.00
4085;BME280;2057;50.858;6.572;2023-04-01T05:21:16;98296.72;;;8.40;100.00
4085;BME280;2057;50.858;6.572;2023-04-01T05:23:42;98303.50;;;8.41;100.00
4085;BME280;2057;50.858;6.572;2023-04-01T05:26:11;98294.22;;;8.42;100.00
4085;BME280;2057;50.858;6.572;2023-04-01T05:28:37;98301.91;;;8.46;100.00
4085;BME280;2057;50.858;6.572;2023-04-01T05:31:04;98306.00;;;8.41;100.00
4085;BME280;2057;50.858;6.572;2023-04-01T05:33:30;98300.03;;;8.38;100.00
4085;BME280;2057;50.858;6.572;2023-04-01T05:35:56;98294.22;;;8.42;100.00
4085;BME280;2057;50.858;6.572;2023-04-01T05:38:22;98304.41;;;8.45;100.00
4085;BME280;2057;50.858;6.572;2023-04-01T05:40:47;98306.97;;;8.46;100.00
4085;BME280;2057;50.858;6.572;2023-04-01T05:43:13;98303.56;;;8.44;100.00
4085;BME280;2057;50.858;6.572;2023-04-01T05:45:38;98305.25;;;8.45;100.00
4085;BME280;2057;50.858;6.572;2023-04-01T05:48:04;98311.34;;;8.52;100.00
4085;BME280;2057;50.858;6.572;2023-04-01T05:50:30;98316.47;;;8.55;100.00
4085;BME280;2057;50.858;6.572;2023-04-01T05:52:55;98308.78;;;8.51;100.00
4085;BME280;2057;50.858;6.572;2023-04-01T05:55:21;98321.53;;;8.57;100.00
4085;BME280;2057;50.858;6.572;2023-04-01T05:57:46;98321.53;;;8.57;100.00
4085;BME280;2057;50.858;6.572;2023-04-01T06:00:14;98325.88;;;8.61;100.00
4085;BME280;2057;50.858;6.572;2023-04-01T06:02:39;98323.22;;;8.56;100.00
4085;BME280;2057;50.858;6.572;2023-04-01T06:05:22;98331.69;;;8.58;100.00
4085;BME280;2057;50.858;6.572;2023-04-01T06:07:48;98330.00;;;8.57;100.00
4085;BME280;2057;50.858;6.572;2023-04-01T06:10:21;98323.28;;;8.59;100.00
4085;BME280;2057;50.858;6.572;2023-04-01T06:13:07;98332.53;;;8.57;100.00
4085;BME280;2057;50.858;6.572;2023-04-01T06:15:47;98332.59;;;8.60;100.00
4085;BME280;2057;50.858;6.572;2023-04-01T06:18:46;98332.69;;;8.65;100.00
4085;BME280;2057;50.858;6.572;2023-04-01T06:21:25;98330.22;;;8.67;100.00
4085;BME280;2057;50.858;6.572;2023-04-01T06:24:31;98329.41;;;8.69;100.00
4085;BME280;2057;50.858;6.572;2023-04-01T06:51:09;98351.00;;;8.94;100.00
4085;BME280;2057;50.858;6.572;2023-04-01T06:56:44;98354.44;;;8.98;100.00
4085;BME280;2057;50.858;6.572;2023-04-01T06:59:21;98354.41;;;8.95;100.00
4085;BME280;2057;50.858;6.572;2023-04-01T07:02:05;98359.47;;;8.95;100.00
4085;BME280;2057;50.858;6.572;2023-04-01T07:04:41;98353.50;;;8.93;100.00
4085;BME280;2057;50.858;6.572;2023-04-01T07:07:14;98356.97;;;8.98;100.00
4085;BME280;2057;50.858;6.572;2023-04-01T07:09:48;98362.94;;;9.00;100.00
4085;BME280;2057;50.858;6.572;2023-04-01T07:14:56;98376.41;;;8.99;100.00
4085;BME280;2057;50.858;6.572;2023-04-01T07:17:27;98367.88;;;8.95;100.00
4085;BME280;2057;50.858;6.572;2023-04-01T07:22:48;98376.28;;;8.93;100.00
4085;BME280;2057;50.858;6.572;2023-04-01T07:25:34;98376.94;;;8.84;100.00
4085;BME280;2057;50.858;6.572;2023-04-01T07:28:10;98382.06;;;8.87;100.00
4085;BME280;2057;50.858;6.572;2023-04-01T07:30:49;98389.78;;;8.93;100.00
4085;BME280;2057;50.858;6.572;2023-04-01T07:44:25;98413.72;;;9.08;100.00
4085;BME280;2057;50.858;6.572;2023-04-01T08:00:24;98431.13;;;8.94;100.00
4085;BME280;2057;50.858;6.572;2023-04-01T08:03:29;98438.91;;;9.03;100.00
4085;BME280;2057;50.858;6.572;2023-04-01T08:06:13;98447.34;;;9.02;100.00
4085;BME280;2057;50.858;6.572;2023-04-01T08:08:50;98447.31;;;9.01;100.00
4085;BME280;2057;50.858;6.572;2023-04-01T08:11:35;98452.31;;;8.99;100.00
4085;BME280;2057;50.858;6.572;2023-04-01T08:14:24;98455.63;;;8.97;100.00
4085;BME280;2057;50.858;6.572;2023-04-01T08:17:11;98456.34;;;8.91;100.00
4085;BME280;2057;50.858;6.572;2023-04-01T08:22:13;98462.22;;;8.90;100.00
4085;BME280;2057;50.858;6.572;2023-04-01T08:24:45;98466.44;;;8.88;100.00
4085;BME280;2057;50.858;6.572;2023-04-01T08:27:25;98471.63;;;8.94;100.00
4085;BME280;2057;50.858;6.572;2023-04-01T08:30:03;98465.56;;;8.89;100.00
4085;BME280;2057;50.858;6.572;2023-04-01T08:32:40;98478.31;;;8.92;100.00
4085;BME280;2057;50.858;6.572;2023-04-01T08:37:39;98475.78;;;8.92;100.00
4085;BME280;2057;50.858;6.572;2023-04-01T09:10:40;98513.94;;;9.01;100.00
4085;BME280;2057;50.858;6.572;2023-04-01T09:15:50;98530.72;;;8.96;100.00
4085;BME280;2057;50.858;6.572;2023-04-01T09:21:16;98519.22;;;9.10;100.00
4085;BME280;2057;50.858;6.572;2023-04-01T09:35:45;98539.97;;;8.95;100.00
4085;BME280;2057;50.858;6.572;2023-04-01T09:38:22;98557.53;;;8.88;100.00
4085;BME280;2057;50.858;6.572;2023-04-01T09:41:01;98546.72;;;8.95;100.00
4085;BME280;2057;50.858;6.572;2023-04-01T09:43:53;98555.34;;;9.03;100.00
4085;BME280;2057;50.858;6.572;2023-04-01T09:49:18;98557.88;;;9.03;100.00
4085;BME280;2057;50.858;6.572;2023-04-01T09:52:06;98556.06;;;8.99;100.00
4085;BME280;2057;50.858;6.572;2023-04-01T10:00:36;98563.00;;;9.06;100.00
4085;BME280;2057;50.858;6.572;2023-04-01T10:03:19;98563.16;;;9.13;100.00
4085;BME280;2057;50.858;6.572;2023-04-01T10:08:50;98576.75;;;9.18;100.00
4085;BME280;2057;50.858;6.572;2023-04-01T10:14:38;98582.25;;;9.36;100.00
4085;BME280;2057;50.858;6.572;2023-04-01T10:36:59;98590.72;;;9.77;100.00
4085;BME280;2057;50.858;6.572;2023-04-01T10:46:40;98595.34;;;9.55;100.00
4085;BME280;2057;50.858;6.572;2023-04-01T10:49:44;98603.06;;;9.61;100.00
4085;BME280;2057;50.858;6.572;2023-04-01T10:53:13;98598.88;;;9.63;100.00
4085;BME280;2057;50.858;6.572;2023-04-01T11:10:07;98602.72;;;9.84;100.00
4085;BME280;2057;50.858;6.572;2023-04-01T11:18:58;98616.66;;;10.04;100.00
4085;BME280;2057;50.858;6.572;2023-04-01T11:25:00;98619.09;;;10.01;100.00
4085;BME280;2057;50.858;6.572;2023-04-01T11:29:52;98625.22;;;10.10;100.00
4085;BME280;2057;50.858;6.572;2023-04-01T11:33:14;98631.94;;;10.09;100.00
4085;BME280;2057;50.858;6.572;2023-04-01T11:38:48;98637.53;;;9.93;100.00
4085;BME280;2057;50.858;6.572;2023-04-01T11:44:22;98642.41;;;9.85;100.00
4085;BME280;2057;50.858;6.572;2023-04-01T11:57:43;98661.28;;;10.38;100.00
4085;BME280;2057;50.858;6.572;2023-04-01T12:06:11;98671.88;;;10.18;100.00
4085;BME280;2057;50.858;6.572;2023-04-01T12:14:19;98681.41;;;10.30;100.00
4085;BME280;2057;50.858;6.572;2023-04-01T12:19:17;98687.72;;;10.09;100.00
4085;BME280;2057;50.858;6.572;2023-04-01T12:27:13;98687.09;;;10.19;100.00
4085;BME280;2057;50.858;6.572;2023-04-01T12:33:04;98693.22;;;10.29;100.00
4085;BME280;2057;50.858;6.572;2023-04-01T12:35:54;98695.19;;;10.41;100.00
4085;BME280;2057;50.858;6.572;2023-04-01T12:38:31;98698.59;;;10.42;100.00
4085;BME280;2057;50.858;6.572;2023-04-01T12:41:09;98697.81;;;10.46;100.00
4085;BME280;2057;50.858;6.572;2023-04-01T12:47:07;98717.25;;;10.45;100.00
4085;BME280;2057;50.858;6.572;2023-04-01T12:52:43;98709.75;;;10.50;100.00
4085;BME280;2057;50.858;6.572;2023-04-01T12:58:15;98713.44;;;10.66;100.00
4085;BME280;2057;50.858;6.572;2023-04-01T13:01:16;98713.31;;;10.60;100.00
4085;BME280;2057;50.858;6.572;2023-04-01T13:09:33;98739.50;;;10.59;100.00
4085;BME280;2057;50.858;6.572;2023-04-01T13:12:18;98732.50;;;10.47;100.00
4085;BME280;2057;50.858;6.572;2023-04-01T13:17:44;98740.31;;;10.56;100.00
4085;BME280;2057;50.858;6.572;2023-04-01T13:23:26;98743.84;;;10.64;100.00
4085;BME280;2057;50.858;6.572;2023-04-01T13:28:34;98745.72;;;10.73;100.00
4085;BME280;2057;50.858;6.572;2023-04-01T13:31:34;98748.13;;;10.67;100.00
4085;BME280;2057;50.858;6.572;2023-04-01T13:34:13;98747.47;;;10.76;100.00
4085;BME280;2057;50.858;6.572;2023-04-01T13:39:49;98750.84;;;10.76;100.00
4085;BME280;2057;50.858;6.572;2023-04-01T13:42:26;98768.44;;;10.67;100.00
4085;BME280;2057;50.858;6.572;2023-04-01T13:45:00;98754.72;;;10.59;100.00
4085;BME280;2057;50.858;6.572;2023-04-01T13:47:55;98758.34;;;10.70;100.00
4085;BME280;2057;50.858;6.572;2023-04-01T13:50:33;98770.81;;;10.59;100.00
4085;BME280;2057;50.858;6.572;2023-04-01T13:59:08;98774.50;;;10.74;100.00
4085;BME280;2057;50.858;6.572;2023-04-01T14:02:13;98792.97;;;10.66;100.00
4085;BME280;2057;50.858;6.572;2023-04-01T14:07:50;98776.03;;;10.65;100.00
4085;BME280;2057;50.858;6.572;2023-04-01T14:10:40;98784.25;;;10.54;100.00
4085;BME280;2057;50.858;6.572;2023-04-01T14:13:31;98787.53;;;10.49;100.00
4085;BME280;2057;50.858;6.572;2023-04-01T14:28:11;98792.53;;;10.46;100.00
4085;BME280;2057;50.858;6.572;2023-04-01T14:38:39;98795.56;;;10.70;100.00
4085;BME280;2057;50.858;6.572;2023-04-01T14:41:18;98803.00;;;10.60;100.00
4085;BME280;2057;50.858;6.572;2023-04-01T14:49:15;98814.81;;;10.60;100.00
4085;BME280;2057;50.858;6.572;2023-04-01T14:51:43;98819.28;;;10.72;100.00
4085;BME280;2057;50.858;6.572;2023-04-01T14:56:41;98833.38;;;10.59;100.00
4085;BME280;2057;50.858;6.572;2023-04-01T15:04:21;98835.16;;;10.61;100.00
4085;BME280;2057;50.858;6.572;2023-04-01T15:13:29;98839.06;;;10.47;100.00
4085;BME280;2057;50.858;6.572;2023-04-01T15:16:20;98850.91;;;10.48;100.00
4085;BME280;2057;50.858;6.572;2023-04-01T15:24:23;98849.97;;;10.43;100.00
4085;BME280;2057;50.858;6.572;2023-04-01T15:35:46;98875.25;;;10.40;100.00
4085;BME280;2057;50.858;6.572;2023-04-01T15:38:45;98880.97;;;10.32;100.00
4085;BME280;2057;50.858;6.572;2023-04-01T15:41:25;98870.28;;;10.44;100.00
4085;BME280;2057;50.858;6.572;2023-04-01T15:44:00;98865.09;;;10.38;100.00
4085;BME280;2057;50.858;6.572;2023-04-01T15:46:50;98878.53;;;10.35;100.00
4085;BME280;2057;50.858;6.572;2023-04-01T15:49:26;98876.16;;;10.42;100.00
4085;BME280;2057;50.858;6.572;2023-04-01T15:52:19;98882.66;;;10.32;100.00
4085;BME280;2057;50.858;6.572;2023-04-01T15:58:02;98883.09;;;10.15;100.00
4085;BME280;2057;50.858;6.572;2023-04-01T16:03:45;98886.41;;;10.11;100.00
4085;BME280;2057;50.858;6.572;2023-04-01T16:13:01;98904.00;;;10.05;100.00
4085;BME280;2057;50.858;6.572;2023-04-01T16:15:26;98898.94;;;10.05;100.00
4085;BME280;2057;50.858;6.572;2023-04-01T16:21:14;98907.38;;;10.05;100.00
4085;BME280;2057;50.858;6.572;2023-04-01T16:23:59;98928.34;;;9.98;100.00
4085;BME280;2057;50.858;6.572;2023-04-01T16:26:42;98913.69;;;9.88;100.00
4085;BME280;2057;50.858;6.572;2023-04-01T16:29:22;98920.50;;;9.91;100.00
4085;BME280;2057;50.858;6.572;2023-04-01T16:32:07;98927.41;;;9.95;100.00
4085;BME280;2057;50.858;6.572;2023-04-01T16:34:46;98934.94;;;9.93;100.00
4085;BME280;2057;50.858;6.572;2023-04-01T16:37:20;98923.81;;;9.86;100.00
4085;BME280;2057;50.858;6.572;2023-04-01T16:40:16;98932.88;;;9.78;100.00
4085;BME280;2057;50.858;6.572;2023-04-01T16:43:10;98936.50;;;9.88;100.00
4085;BME280;2057;50.858;6.572;2023-04-01T16:45:54;98938.06;;;9.83;100.00
4085;BME280;2057;50.858;6.572;2023-04-01T16:48:28;98943.06;;;9.80;100.00
4085;BME280;2057;50.858;6.572;2023-04-01T16:51:22;98948.97;;;9.80;100.00
4085;BME280;2057;50.858;6.572;2023-04-01T16:53:50;98948.13;;;9.80;100.00
4085;BME280;2057;50.858;6.572;2023-04-01T16:56:23;98947.09;;;9.73;100.00
4085;BME280;2057;50.858;6.572;2023-04-01T16:59:17;98954.00;;;9.79;100.00
4085;BME280;2057;50.858;6.572;2023-04-01T17:01:53;98964.63;;;9.65;100.00
4085;BME280;2057;50.858;6.572;2023-04-01T17:04:26;98965.34;;;9.61;100.00
4085;BME280;2057;50.858;6.572;2023-04-01T17:07:05;98966.81;;;9.53;100.00
4085;BME280;2057;50.858;6.572;2023-04-01T17:12:30;98977.50;;;9.42;100.00
4085;BME280;2057;50.858;6.572;2023-04-01T17:15:11;98979.16;;;9.40;100.00
4085;BME280;2057;50.858;6.572;2023-04-01T17:17:59;98980.75;;;9.38;100.00
4085;BME280;2057;50.858;6.572;2023-04-01T17:20:40;98991.47;;;9.30;100.00
4085;BME280;2057;50.858;6.572;2023-04-01T17:26:20;99001.31;;;9.20;100.00
4085;BME280;2057;50.858;6.572;2023-04-01T17:32:01;99014.31;;;9.31;100.00
4085;BME280;2057;50.858;6.572;2023-04-01T17:39:46;99022.28;;;9.15;100.00
4085;BME280;2057;50.858;6.572;2023-04-01T17:42:22;99024.06;;;9.19;100.00
4085;BME280;2057;50.858;6.572;2023-04-01T17:45:03;99031.34;;;9.08;100.00
4085;BME280;2057;50.858;6.572;2023-04-01T17:51:00;99043.84;;;9.03;100.00
4085;BME280;2057;50.858;6.572;2023-04-01T17:53:39;99039.47;;;8.98;100.00
4085;BME280;2057;50.858;6.572;2023-04-01T18:07:48;99060.34;;;8.92;100.00
4085;BME280;2057;50.858;6.572;2023-04-01T18:15:40;99069.47;;;8.87;100.00
4085;BME280;2057;50.858;6.572;2023-04-01T18:23:47;99072.53;;;8.76;100.00
4085;BME280;2057;50.858;6.572;2023-04-01T18:28:56;99086.78;;;8.74;100.00
4085;BME280;2057;50.858;6.572;2023-04-01T18:31:27;99083.44;;;8.75;100.00
4085;BME280;2057;50.858;6.572;2023-04-01T18:34:12;99082.38;;;8.69;100.00
4085;BME280;2057;50.858;6.572;2023-04-01T18:36:48;99095.09;;;8.70;100.00
4085;BME280;2057;50.858;6.572;2023-04-01T18:39:32;99095.19;;;8.73;100.00
4085;BME280;2057;50.858;6.572;2023-04-01T18:44:48;99100.97;;;8.69;100.00
4085;BME280;2057;50.858;6.572;2023-04-01T18:47:38;99100.84;;;8.66;100.00
4085;BME280;2057;50.858;6.572;2023-04-01T18:53:20;99105.63;;;8.58;100.00
4085;BME280;2057;50.858;6.572;2023-04-01T18:55:50;99119.63;;;8.48;100.00
4085;BME280;2057;50.858;6.572;2023-04-01T18:58:44;99121.56;;;8.56;100.00
4085;BME280;2057;50.858;6.572;2023-04-01T19:04:10;99124.81;;;8.52;100.00
4085;BME280;2057;50.858;6.572;2023-04-01T19:06:46;99132.25;;;8.47;100.00
4085;BME280;2057;50.858;6.572;2023-04-01T19:09:27;99130.63;;;8.49;100.00
4085;BME280;2057;50.858;6.572;2023-04-01T19:17:37;99143.31;;;8.51;100.00
4085;BME280;2057;50.858;6.572;2023-04-01T19:25:48;99156.81;;;8.51;100.00
4085;BME280;2057;50.858;6.572;2023-04-01T19:34:26;99155.34;;;8.56;100.00
4085;BME280;2057;50.858;6.572;2023-04-01T19:36:57;99163.69;;;8.54;100.00
4085;BME280;2057;50.858;6.572;2023-04-01T19:40:05;99159.44;;;8.53;100.00
4085;BME280;2057;50.858;6.572;2023-04-01T19:51:10;99175.97;;;8.44;100.00
4085;BME280;2057;50.858;6.572;2023-04-01T19:53:56;99175.50;;;8.32;100.00
4085;BME280;2057;50.858;6.572;2023-04-01T19:56:33;99186.00;;;8.43;100.00
4085;BME280;2057;50.858;6.572;2023-04-01T19:59:33;99183.44;;;8.41;100.00
4085;BME280;2057;50.858;6.572;2023-04-01T20:04:45;99196.81;;;8.39;100.00
4085;BME280;2057;50.858;6.572;2023-04-01T20:07:21;99190.09;;;8.39;100.00
4085;BME280;2057;50.858;6.572;2023-04-01T20:10:09;99185.78;;;8.37;100.00
4085;BME280;2057;50.858;6.572;2023-04-01T20:12:59;99194.16;;;8.36;100.00
4085;BME280;2057;50.858;6.572;2023-04-01T20:15:39;99192.63;;;8.39;100.00
4085;BME280;2057;50.858;6.572;2023-04-01T20:18:15;99198.25;;;8.32;100.00
4085;BME280;2057;50.858;6.572;2023-04-01T20:20:54;99198.25;;;8.32;100.00
4085;BME280;2057;50.858;6.572;2023-04-01T20:23:42;99205.22;;;8.38;100.00
4085;BME280;2057;50.858;6.572;2023-04-01T20:26:11;99200.78;;;8.32;100.00
4085;BME280;2057;50.858;6.572;2023-04-01T20:31:42;99208.16;;;8.26;100.00
4085;BME280;2057;50.858;6.572;2023-04-01T20:34:32;99214.69;;;8.21;100.00
4085;BME280;2057;50.858;6.572;2023-04-01T20:37:39;99205.50;;;8.23;100.00
4085;BME280;2057;50.858;6.572;2023-04-01T20:46:04;99226.53;;;8.22;100.00
4085;BME280;2057;50.858;6.572;2023-04-01T20:51:38;99234.09;;;8.22;100.00
4085;BME280;2057;50.858;6.572;2023-04-01T20:55:47;99235.38;;;8.33;100.00
4085;BME280;2057;50.858;6.572;2023-04-01T20:57:47;99236.13;;;8.30;100.00
4085;BME280;2057;50.858;6.572;2023-04-01T21:07:04;99246.19;;;8.29;100.00
4085;BME280;2057;50.858;6.572;2023-04-01T21:09:20;99250.50;;;8.31;100.00
4085;BME280;2057;50.858;6.572;2023-04-01T21:12:15;99246.47;;;8.37;100.00
4085;BME280;2057;50.858;6.572;2023-04-01T21:30:35;99266.47;;;8.30;100.00